createdAt,value
2022-09-20T00:00:34.912Z,8.90
2022-09-20T00:06:02.308Z,8.80
2022-09-20T00:11:07.828Z,8.70
2022-09-20T00:16:15.361Z,8.60
2022-09-20T00:21:20.679Z,8.50
2022-09-20T00:26:23.656Z,8.40
2022-09-20T00:31:27.025Z,8.40
2022-09-20T00:36:30.226Z,8.30
2022-09-20T00:41:33.548Z,8.30
2022-09-20T00:46:43.626Z,8.30
2022-09-20T00:51:51.443Z,8.10
2022-09-20T00:56:54.204Z,8.00
2022-09-20T01:02:21.386Z,7.80
2022-09-20T01:07:25.167Z,7.70
2022-09-20T01:12:30.816Z,7.60
2022-09-20T01:17:37.322Z,7.50
2022-09-20T01:23:14.436Z,7.40
2022-09-20T01:28:17.120Z,7.50
2022-09-20T01:33:51.695Z,7.50
2022-09-20T01:39:17.063Z,7.90
2022-09-20T01:44:22.534Z,8.20
2022-09-20T01:50:00.160Z,8.30
2022-09-20T01:55:24.313Z,8.50
2022-09-20T02:00:31.915Z,8.60
2022-09-20T02:05:59.889Z,8.40
2022-09-20T02:11:23.654Z,8.20
2022-09-20T02:16:34.809Z,7.80
2022-09-20T02:21:48.990Z,7.40
2022-09-20T02:27:10.164Z,7.40
2022-09-20T02:32:38.886Z,7.30
2022-09-20T02:37:44.313Z,7.20
2022-09-20T02:42:58.149Z,7.20
2022-09-20T02:48:04.726Z,7.30
2022-09-20T02:53:43.317Z,7.30
2022-09-20T02:58:55.134Z,7.50
2022-09-20T03:04:21.416Z,7.60
2022-09-20T03:09:56.069Z,7.70
2022-09-20T03:15:38.610Z,7.80
2022-09-20T03:21:12.107Z,7.80
2022-09-20T03:26:42.361Z,7.80
2022-09-20T03:31:45.849Z,7.60
2022-09-20T03:37:18.374Z,7.30
2022-09-20T03:42:29.664Z,7.10
2022-09-20T03:47:50.010Z,7.20
2022-09-20T03:52:52.508Z,7.40
2022-09-20T03:58:18.325Z,7.80
2022-09-20T04:03:28.695Z,8.00
2022-09-20T04:09:09.348Z,8.30
2022-09-20T04:14:39.036Z,8.50
2022-09-20T04:19:51.681Z,8.60
2022-09-20T04:25:04.377Z,8.60
2022-09-20T04:30:21.764Z,8.50
2022-09-20T04:35:43.029Z,8.50
2022-09-20T04:40:54.256Z,8.60
2022-09-20T04:46:35.694Z,8.60
2022-09-20T04:51:54.410Z,8.60
2022-09-20T04:57:34.511Z,8.70
2022-09-20T05:03:04.178Z,8.80
2022-09-20T05:08:06.580Z,8.80
2022-09-20T05:13:15.834Z,8.90
2022-09-20T05:18:49.887Z,8.90
2022-09-20T05:24:04.677Z,9.00
2022-09-20T05:29:35.159Z,9.00
2022-09-20T05:34:46.825Z,9.00
2022-09-20T05:40:40.998Z,9.10
2022-09-20T05:45:49.087Z,9.20
2022-09-20T05:51:10.856Z,9.20
2022-09-20T05:56:39.238Z,9.40
2022-09-20T06:01:44.036Z,9.60
2022-09-20T06:07:05.201Z,9.60
2022-09-20T06:12:47.485Z,9.60
2022-09-20T06:18:02.077Z,9.60
2022-09-20T06:23:05.629Z,9.70
2022-09-20T06:28:22.313Z,10.00
2022-09-20T06:33:26.950Z,10.30
2022-09-20T06:39:07.384Z,10.10
2022-09-20T06:44:09.860Z,10.20
2022-09-20T06:49:12.331Z,10.30
2022-09-20T06:54:18.280Z,10.20
2022-09-20T06:59:20.869Z,10.20
2022-09-20T07:04:24.941Z,10.60
2022-09-20T07:09:28.223Z,10.80
2022-09-20T07:14:31.131Z,11.00
2022-09-20T07:19:34.000Z,11.00
2022-09-20T07:24:36.491Z,11.10
2022-09-20T07:29:40.988Z,11.10
2022-09-20T07:34:43.811Z,11.20
2022-09-20T07:39:46.495Z,11.30
2022-09-20T07:44:48.976Z,11.30
2022-09-20T07:49:51.900Z,11.50
2022-09-20T07:54:54.430Z,12.20
2022-09-20T07:59:56.903Z,12.70
2022-09-20T08:04:59.396Z,12.40
2022-09-20T08:10:02.407Z,12.50
2022-09-20T08:15:08.539Z,13.10
2022-09-20T08:20:29.854Z,12.90
2022-09-20T08:25:33.242Z,13.00
2022-09-20T08:30:35.686Z,12.50
2022-09-20T08:35:38.462Z,12.40
2022-09-20T08:40:41.321Z,12.70
2022-09-20T08:45:44.353Z,13.00
2022-09-20T08:50:46.859Z,13.00
2022-09-20T08:55:49.497Z,12.90
2022-09-20T09:00:53.325Z,12.90
2022-09-20T09:05:58.178Z,12.80
2022-09-20T09:11:28.346Z,13.00
2022-09-20T09:16:35.809Z,12.80
2022-09-20T09:21:43.072Z,12.70
2022-09-20T09:26:46.356Z,12.60
2022-09-20T09:31:51.880Z,12.40
2022-09-20T09:36:55.535Z,12.60
2022-09-20T09:42:02.603Z,12.40
2022-09-20T09:47:27.683Z,11.90
2022-09-20T09:52:33.448Z,11.60
2022-09-20T09:58:04.058Z,11.90
2022-09-20T10:03:52.014Z,11.80
2022-09-20T10:09:09.571Z,12.00
2022-09-20T10:14:12.183Z,12.30
2022-09-20T10:19:50.898Z,12.30
2022-09-20T10:25:20.726Z,12.80
2022-09-20T10:30:45.812Z,13.10
2022-09-20T10:36:12.691Z,12.80
2022-09-20T10:42:03.122Z,12.40
2022-09-20T10:47:21.558Z,12.60
2022-09-20T10:52:31.712Z,12.90
2022-09-20T10:58:11.349Z,13.00
2022-09-20T11:03:25.856Z,13.40
2022-09-20T11:08:33.747Z,13.10
2022-09-20T11:13:57.435Z,13.50
2022-09-20T11:19:31.430Z,13.70
2022-09-20T11:24:58.916Z,14.00
2022-09-20T11:30:15.017Z,13.80
2022-09-20T11:35:34.323Z,13.90
2022-09-20T11:40:58.319Z,13.80
2022-09-20T11:46:09.006Z,13.50
2022-09-20T11:57:28.489Z,13.10
2022-09-20T12:02:51.507Z,13.90
2022-09-20T12:07:56.783Z,14.30
2022-09-20T12:13:05.675Z,14.30
2022-09-20T12:18:27.109Z,14.30
2022-09-20T12:23:40.474Z,14.40
2022-09-20T12:28:51.732Z,14.20
2022-09-20T12:34:12.276Z,14.60
2022-09-20T12:39:30.343Z,14.60
2022-09-20T12:44:59.712Z,14.10
2022-09-20T12:50:24.144Z,13.70
2022-09-20T12:55:40.966Z,13.90
2022-09-20T13:00:48.686Z,14.10
2022-09-20T13:06:19.832Z,13.90
2022-09-20T13:11:39.216Z,13.90
2022-09-20T13:17:12.283Z,13.90
2022-09-20T13:22:26.528Z,13.90
2022-09-20T13:27:50.904Z,13.90
2022-09-20T13:32:53.474Z,13.80
2022-09-20T13:37:59.001Z,13.90
2022-09-20T13:43:24.407Z,14.30
2022-09-20T13:48:30.081Z,14.40
2022-09-20T13:53:47.857Z,14.70
2022-09-20T13:58:51.635Z,14.70
2022-09-20T14:03:54.650Z,14.70
2022-09-20T14:08:59.781Z,14.60
2022-09-20T14:14:04.348Z,14.60
2022-09-20T14:19:08.147Z,14.50
2022-09-20T14:24:13.847Z,14.40
2022-09-20T14:29:34.349Z,14.40
2022-09-20T14:34:41.381Z,14.50
2022-09-20T14:39:54.982Z,14.60
2022-09-20T14:44:57.992Z,14.30
2022-09-20T14:50:00.631Z,14.10
2022-09-20T14:55:16.284Z,14.10
2022-09-20T15:00:19.572Z,14.10
2022-09-20T15:05:26.333Z,14.00
2022-09-20T15:10:30.467Z,13.80
2022-09-20T15:15:33.065Z,13.80
2022-09-20T15:20:35.449Z,14.20
2022-09-20T15:25:38.465Z,14.50
2022-09-20T15:30:41.081Z,14.20
2022-09-20T15:35:44.913Z,14.00
2022-09-20T15:40:49.468Z,13.70
2022-09-20T15:46:00.764Z,13.50
2022-09-20T15:51:07.833Z,13.20
2022-09-20T15:56:28.288Z,13.00
2022-09-20T16:01:37.639Z,12.80
2022-09-20T16:06:42.613Z,12.70
2022-09-20T16:11:45.836Z,12.50
2022-09-20T16:16:48.862Z,12.30
2022-09-20T16:21:58.134Z,12.00
2022-09-20T16:27:04.130Z,11.90
2022-09-20T16:32:06.949Z,11.70
2022-09-20T16:37:18.385Z,11.40
2022-09-20T16:42:29.497Z,11.30
2022-09-20T16:47:32.039Z,11.10
2022-09-20T16:52:34.501Z,10.90
2022-09-20T16:57:38.396Z,10.70
2022-09-20T17:02:45.808Z,10.40
2022-09-20T17:07:51.180Z,10.30
2022-09-20T17:12:58.084Z,10.20
2022-09-20T17:18:01.142Z,10.00
2022-09-20T17:23:03.806Z,9.90
2022-09-20T17:28:06.308Z,9.70
2022-09-20T17:33:08.789Z,9.60
2022-09-20T17:38:12.234Z,9.20
2022-09-20T17:43:15.580Z,9.00
2022-09-20T17:48:23.205Z,8.90
2022-09-20T17:53:26.009Z,8.90
2022-09-20T17:58:29.514Z,8.70
2022-09-20T18:03:36.367Z,8.40
2022-09-20T18:08:39.706Z,8.20
2022-09-20T18:13:42.443Z,8.10
2022-09-20T18:18:46.636Z,8.10
2022-09-20T18:23:49.757Z,7.90
2022-09-20T18:29:02.865Z,7.80
2022-09-20T18:34:07.731Z,7.70
2022-09-20T18:39:10.328Z,7.50
2022-09-20T18:44:14.719Z,7.40
2022-09-20T18:49:17.672Z,7.40
2022-09-20T18:54:20.572Z,7.40
2022-09-20T18:59:25.291Z,7.70
2022-09-20T19:04:42.837Z,7.90
2022-09-20T19:09:52.758Z,8.10
2022-09-20T19:15:23.431Z,8.10
2022-09-20T19:20:40.664Z,8.10
2022-09-20T19:25:47.017Z,8.10
2022-09-20T19:30:49.629Z,8.30
2022-09-20T19:35:52.649Z,8.50
2022-09-20T19:41:18.148Z,8.50
2022-09-20T19:47:01.603Z,8.60
2022-09-20T19:52:06.522Z,8.70
2022-09-20T19:57:23.543Z,8.70
2022-09-20T20:02:26.463Z,8.70
2022-09-20T20:08:02.433Z,8.70
2022-09-20T20:13:34.549Z,8.80
2022-09-20T20:19:07.732Z,8.70
2022-09-20T20:24:41.214Z,8.80
2022-09-20T20:29:43.776Z,8.80
2022-09-20T20:34:46.965Z,8.60
2022-09-20T20:39:49.844Z,8.40
2022-09-20T20:44:52.206Z,8.30
2022-09-20T20:49:55.138Z,9.30
2022-09-20T20:55:00.090Z,7.90
2022-09-20T21:00:03.106Z,7.80
2022-09-20T21:05:07.079Z,7.70
2022-09-20T21:10:09.838Z,7.50
2022-09-20T21:15:12.488Z,7.30
2022-09-20T21:20:14.978Z,7.10
2022-09-20T21:25:17.391Z,7.10
2022-09-20T21:30:20.624Z,6.90
2022-09-20T21:35:24.169Z,7.00
2022-09-20T21:40:26.762Z,7.00
2022-09-20T21:45:29.640Z,7.00
2022-09-20T21:50:32.069Z,7.00
2022-09-20T21:55:34.665Z,7.00
2022-09-20T22:00:37.132Z,7.10
2022-09-20T22:05:39.507Z,7.10
2022-09-20T22:10:42.105Z,7.00
2022-09-20T22:15:44.542Z,7.00
2022-09-20T22:20:47.213Z,7.00
2022-09-20T22:26:06.465Z,5.20
2022-09-20T22:31:12.026Z,6.80
2022-09-20T22:36:18.004Z,6.70
2022-09-20T22:41:21.213Z,6.80
2022-09-20T22:46:25.865Z,6.70
2022-09-20T22:51:33.689Z,6.90
2022-09-20T22:56:36.663Z,6.90
2022-09-20T23:01:45.399Z,7.10
2022-09-20T23:06:54.567Z,7.00
2022-09-20T23:11:57.058Z,6.90
2022-09-20T23:17:00.064Z,6.80
2022-09-20T23:22:02.682Z,6.60
2022-09-20T23:27:05.532Z,6.70
2022-09-20T23:32:08.022Z,6.60
2022-09-20T23:37:10.878Z,6.60
2022-09-20T23:42:13.410Z,6.60
2022-09-20T23:47:15.875Z,6.50
2022-09-20T23:52:18.530Z,6.30
2022-09-20T23:57:20.926Z,6.40
